createdAt,value
2018-01-04T00:00:57.076Z,6.80
2018-01-04T00:03:28.372Z,6.80
2018-01-04T00:06:00.467Z,6.80
2018-01-04T00:08:31.218Z,6.80
2018-01-04T00:11:02.555Z,6.80
2018-01-04T00:13:33.557Z,6.80
2018-01-04T00:16:04.668Z,6.90
2018-01-04T00:18:36.972Z,7.00
2018-01-04T00:21:09.282Z,7.00
2018-01-04T00:23:41.268Z,6.90
2018-01-04T00:26:13.728Z,7.00
2018-01-04T00:28:44.427Z,7.00
2018-01-04T00:31:15.209Z,7.00
2018-01-04T00:33:46.527Z,7.00
2018-01-04T00:36:17.283Z,6.90
2018-01-04T00:38:48.844Z,6.90
2018-01-04T00:41:21.040Z,6.80
2018-01-04T00:43:52.498Z,6.90
2018-01-04T00:46:25.364Z,6.90
2018-01-04T00:48:56.295Z,6.90
2018-01-04T00:51:27.871Z,7.00
2018-01-04T00:53:59.279Z,7.00
2018-01-04T00:56:30.854Z,7.00
2018-01-04T00:59:01.852Z,7.00
2018-01-04T01:01:34.470Z,6.90
2018-01-04T01:04:06.013Z,6.90
2018-01-04T01:06:36.839Z,6.90
2018-01-04T01:09:08.398Z,6.70
2018-01-04T01:11:39.449Z,6.70
2018-01-04T01:14:11.512Z,6.70
2018-01-04T01:16:42.295Z,6.60
2018-01-04T01:19:13.054Z,6.60
2018-01-04T01:21:44.592Z,6.70
2018-01-04T01:24:15.797Z,6.70
2018-01-04T01:26:46.597Z,6.70
2018-01-04T01:29:17.687Z,6.70
2018-01-04T01:31:48.528Z,6.80
2018-01-04T01:34:19.417Z,6.80
2018-01-04T01:36:50.227Z,6.80
2018-01-04T01:39:21.208Z,6.80
2018-01-04T01:41:52.868Z,6.90
2018-01-04T01:44:23.551Z,6.90
2018-01-04T01:46:54.787Z,7.00
2018-01-04T01:49:25.512Z,6.90
2018-01-04T01:51:56.529Z,6.90
2018-01-04T01:54:27.536Z,6.80
2018-01-04T01:56:58.239Z,6.90
2018-01-04T01:59:28.928Z,6.80
2018-01-04T02:02:00.053Z,6.80
2018-01-04T02:04:30.944Z,6.70
2018-01-04T02:07:01.760Z,6.70
2018-01-04T02:09:33.458Z,6.60
2018-01-04T02:12:04.187Z,6.60
2018-01-04T02:14:36.056Z,6.60
2018-01-04T02:17:07.670Z,6.60
2018-01-04T02:22:49.635Z,6.50
2018-01-04T02:25:56.995Z,6.50
2018-01-04T02:29:03.474Z,6.60
2018-01-04T02:33:48.284Z,5.80
2018-01-04T02:38:30.946Z,4.80
2018-01-04T02:41:01.970Z,4.90
2018-01-04T02:44:03.818Z,5.20
2018-01-04T02:46:36.172Z,5.30
2018-01-04T02:49:06.772Z,5.20
2018-01-04T02:51:37.723Z,5.40
2018-01-04T02:54:08.916Z,5.40
2018-01-04T02:56:40.624Z,5.50
2018-01-04T02:59:11.555Z,5.50
2018-01-04T03:01:41.954Z,5.50
2018-01-04T03:04:13.335Z,5.60
2018-01-04T03:06:44.323Z,5.60
2018-01-04T03:09:15.909Z,5.70
2018-01-04T03:11:47.018Z,5.70
2018-01-04T03:14:19.501Z,5.80
2018-01-04T03:16:51.035Z,5.80
2018-01-04T03:19:21.487Z,5.80
2018-01-04T03:21:55.940Z,5.90
2018-01-04T03:24:30.791Z,5.90
2018-01-04T03:29:08.224Z,6.00
2018-01-04T03:31:43.631Z,6.00
2018-01-04T03:36:20.183Z,6.00
2018-01-04T03:39:26.867Z,6.00
2018-01-04T03:44:06.359Z,6.10
2018-01-04T03:48:43.679Z,6.10
2018-01-04T03:53:21.435Z,6.10
2018-01-04T03:57:59.548Z,6.00
2018-01-04T04:00:34.012Z,6.00
2018-01-04T04:03:05.300Z,6.00
2018-01-04T04:05:40.303Z,6.00
2018-01-04T04:08:14.801Z,6.00
2018-01-04T04:10:46.075Z,6.00
2018-01-04T04:13:16.896Z,6.00
2018-01-04T04:15:47.604Z,6.00
2018-01-04T04:18:18.114Z,6.10
2018-01-04T04:20:48.621Z,5.90
2018-01-04T04:23:19.180Z,6.00
2018-01-04T04:25:50.076Z,6.00
2018-01-04T04:28:20.851Z,6.00
2018-01-04T04:30:51.260Z,6.10
2018-01-04T04:33:22.236Z,6.10
2018-01-04T04:35:52.675Z,6.10
2018-01-04T04:38:23.751Z,6.10
2018-01-04T04:40:54.585Z,6.10
2018-01-04T04:43:25.208Z,6.10
2018-01-04T04:45:55.828Z,6.00
2018-01-04T04:48:29.230Z,6.00
2018-01-04T04:51:00.001Z,6.00
2018-01-04T04:53:31.096Z,5.90
2018-01-04T04:56:01.630Z,5.90
2018-01-04T04:58:32.048Z,6.00
2018-01-04T05:01:02.586Z,6.00
2018-01-04T05:03:34.546Z,6.00
2018-01-04T05:06:07.009Z,5.90
2018-01-04T05:08:39.437Z,5.90
2018-01-04T05:11:10.661Z,5.90
2018-01-04T05:13:41.475Z,5.80
2018-01-04T05:16:11.948Z,5.80
2018-01-04T05:18:42.806Z,5.80
2018-01-04T05:21:15.251Z,5.80
2018-01-04T05:23:45.801Z,5.80
2018-01-04T05:26:16.603Z,5.80
2018-01-04T05:28:47.568Z,5.80
2018-01-04T05:31:18.128Z,5.80
2018-01-04T05:33:49.430Z,5.80
2018-01-04T05:36:22.084Z,5.80
2018-01-04T05:38:52.879Z,5.80
2018-01-04T05:41:23.515Z,5.80
2018-01-04T05:43:54.308Z,5.90
2018-01-04T05:46:24.777Z,5.90
2018-01-04T05:48:56.032Z,5.90
2018-01-04T05:51:26.640Z,5.90
2018-01-04T05:53:58.672Z,5.90
2018-01-04T05:56:29.507Z,5.90
2018-01-04T05:59:00.036Z,5.90
2018-01-04T06:01:30.673Z,5.90
2018-01-04T06:04:02.467Z,5.90
2018-01-04T06:06:33.350Z,5.80
2018-01-04T06:09:04.095Z,5.90
2018-01-04T06:11:34.564Z,5.80
2018-01-04T06:14:05.171Z,5.80
2018-01-04T06:16:36.796Z,5.80
2018-01-04T06:19:07.250Z,5.80
2018-01-04T06:21:38.487Z,5.80
2018-01-04T06:24:11.610Z,5.80
2018-01-04T06:26:43.114Z,5.80
2018-01-04T06:29:13.891Z,5.80
2018-01-04T06:31:45.061Z,5.80
2018-01-04T06:34:15.809Z,5.80
2018-01-04T06:36:46.379Z,5.80
2018-01-04T06:39:18.439Z,5.80
2018-01-04T06:41:49.775Z,5.70
2018-01-04T06:44:20.643Z,5.70
2018-01-04T06:46:51.371Z,5.70
2018-01-04T06:49:22.011Z,5.70
2018-01-04T06:51:52.760Z,5.70
2018-01-04T06:54:23.346Z,5.80
2018-01-04T06:56:54.529Z,5.80
2018-01-04T06:59:25.835Z,5.80
2018-01-04T07:01:57.228Z,5.80
2018-01-04T07:04:28.473Z,5.80
2018-01-04T07:07:02.389Z,5.80
2018-01-04T07:09:32.804Z,5.70
2018-01-04T07:12:03.416Z,5.80
2018-01-04T07:14:35.833Z,5.70
2018-01-04T07:17:06.296Z,5.70
2018-01-04T07:19:37.462Z,5.70
2018-01-04T07:22:09.343Z,5.70
2018-01-04T07:24:42.345Z,5.70
2018-01-04T07:27:15.064Z,5.80
2018-01-04T07:29:50.703Z,5.70
2018-01-04T07:32:23.921Z,5.70
2018-01-04T07:34:54.911Z,5.80
2018-01-04T07:37:25.244Z,5.80
2018-01-04T07:39:55.770Z,5.80
2018-01-04T07:42:29.281Z,5.80
2018-01-04T07:45:00.000Z,5.80
2018-01-04T07:47:30.623Z,5.80
2018-01-04T07:50:02.153Z,5.80
2018-01-04T07:52:33.003Z,5.80
2018-01-04T07:55:03.827Z,5.80
2018-01-04T07:57:36.857Z,5.80
2018-01-04T08:00:07.604Z,5.80
2018-01-04T08:02:38.345Z,5.80
2018-01-04T08:05:09.187Z,5.90
2018-01-04T08:07:40.326Z,5.80
2018-01-04T08:10:11.826Z,5.90
2018-01-04T08:12:43.523Z,5.90
2018-01-04T08:15:15.595Z,5.90
2018-01-04T08:17:46.712Z,5.90
2018-01-04T08:20:18.633Z,5.90
2018-01-04T08:22:49.829Z,5.90
2018-01-04T08:25:20.551Z,5.90
2018-01-04T08:27:51.656Z,5.90
2018-01-04T08:30:23.767Z,5.90
2018-01-04T08:32:55.298Z,6.00
2018-01-04T08:35:27.783Z,6.00
2018-01-04T08:37:58.565Z,6.10
2018-01-04T08:40:30.526Z,6.10
2018-01-04T08:43:03.874Z,6.00
2018-01-04T08:45:34.563Z,6.00
2018-01-04T08:48:05.276Z,6.00
2018-01-04T08:50:37.120Z,6.00
2018-01-04T08:53:07.949Z,6.00
2018-01-04T08:55:39.499Z,6.10
2018-01-04T08:58:10.468Z,6.00
2018-01-04T09:00:41.407Z,6.00
2018-01-04T09:03:13.397Z,6.10
2018-01-04T09:06:02.728Z,6.10
2018-01-04T09:08:33.942Z,6.10
2018-01-04T09:11:05.412Z,6.00
2018-01-04T09:13:37.960Z,6.00
2018-01-04T09:16:10.715Z,6.00
2018-01-04T09:18:42.939Z,6.10
2018-01-04T09:21:13.959Z,6.00
2018-01-04T09:23:44.788Z,6.00
2018-01-04T09:26:16.503Z,6.00
2018-01-04T09:29:37.502Z,5.90
2018-01-04T09:32:08.884Z,6.00
2018-01-04T09:34:40.159Z,6.00
2018-01-04T09:37:11.201Z,6.00
2018-01-04T09:39:44.164Z,6.00
2018-01-04T09:42:15.070Z,6.00
2018-01-04T09:44:45.819Z,6.00
2018-01-04T09:47:18.084Z,6.00
2018-01-04T09:49:48.990Z,6.00
2018-01-04T09:52:19.838Z,6.00
2018-01-04T09:54:50.614Z,6.10
2018-01-04T09:57:21.552Z,6.10
2018-01-04T09:59:54.136Z,6.10
2018-01-04T10:02:24.984Z,6.10
2018-01-04T10:04:57.047Z,6.10
2018-01-04T10:07:27.784Z,6.10
2018-01-04T10:09:59.418Z,6.10
2018-01-04T10:12:30.476Z,6.10
2018-01-04T10:15:02.102Z,6.20
2018-01-04T10:17:33.141Z,6.20
2018-01-04T10:20:05.068Z,6.30
2018-01-04T10:22:35.864Z,6.30
2018-01-04T10:25:07.069Z,6.30
2018-01-04T10:27:37.824Z,6.40
2018-01-04T10:30:08.797Z,6.40
2018-01-04T10:32:39.917Z,6.50
2018-01-04T10:35:11.617Z,6.50
2018-01-04T10:37:42.283Z,6.50
2018-01-04T10:40:13.071Z,6.60
2018-01-04T10:42:44.144Z,6.50
2018-01-04T10:45:14.917Z,6.50
2018-01-04T10:47:45.627Z,6.50
2018-01-04T10:50:16.414Z,6.60
2018-01-04T10:52:47.921Z,6.60
2018-01-04T10:55:18.679Z,6.70
2018-01-04T10:57:49.733Z,6.70
2018-01-04T11:00:22.460Z,6.60
2018-01-04T11:02:55.414Z,6.60
2018-01-04T11:05:27.073Z,6.60
2018-01-04T11:07:57.856Z,6.60
2018-01-04T11:10:28.645Z,6.70
2018-01-04T11:12:59.803Z,6.70
2018-01-04T11:15:30.892Z,6.70
2018-01-04T11:18:02.470Z,6.70
2018-01-04T11:20:33.360Z,6.70
2018-01-04T11:23:04.202Z,6.70
2018-01-04T11:25:35.186Z,6.70
2018-01-04T11:28:07.037Z,6.70
2018-01-04T11:30:37.719Z,6.60
2018-01-04T11:33:09.262Z,6.60
2018-01-04T11:35:40.139Z,6.50
2018-01-04T11:38:12.157Z,6.50
2018-01-04T11:40:49.092Z,6.50
2018-01-04T11:43:27.652Z,6.40
2018-01-04T11:46:00.128Z,6.30
2018-01-04T11:48:31.804Z,6.40
2018-01-04T11:51:03.025Z,6.30
2018-01-04T11:53:34.716Z,6.30
2018-01-04T11:56:05.536Z,6.30
2018-01-04T11:58:37.156Z,6.50
2018-01-04T12:01:07.962Z,6.50
2018-01-04T12:03:41.164Z,6.50
2018-01-04T12:06:13.332Z,6.50
2018-01-04T12:08:44.157Z,6.40
2018-01-04T12:11:14.852Z,6.40
2018-01-04T12:13:46.783Z,6.50
2018-01-04T12:16:17.859Z,6.50
2018-01-04T12:18:48.924Z,6.50
2018-01-04T12:21:19.964Z,6.60
2018-01-04T12:23:51.568Z,6.60
2018-01-04T12:26:22.300Z,6.60
2018-01-04T12:28:53.428Z,6.60
2018-01-04T12:31:24.163Z,6.70
2018-01-04T12:33:54.920Z,6.70
2018-01-04T12:36:25.660Z,6.80
2018-01-04T12:38:56.941Z,6.70
2018-01-04T12:41:27.600Z,6.80
2018-01-04T12:43:58.411Z,6.80
2018-01-04T12:46:29.518Z,6.80
2018-01-04T12:49:00.339Z,6.80
2018-01-04T12:51:31.087Z,6.70
2018-01-04T12:54:01.915Z,6.70
2018-01-04T12:56:33.630Z,6.70
2018-01-04T12:59:04.529Z,6.70
2018-01-04T13:01:36.469Z,6.70
2018-01-04T13:04:07.352Z,6.70
2018-01-04T13:06:38.181Z,6.70
2018-01-04T13:09:09.350Z,6.70
2018-01-04T13:11:40.016Z,6.60
2018-01-04T13:14:10.944Z,6.70
2018-01-04T13:16:41.717Z,6.70
2018-01-04T13:19:12.852Z,6.70
2018-01-04T13:21:44.432Z,6.70
2018-01-04T13:24:15.189Z,6.70
2018-01-04T13:26:46.086Z,6.70
2018-01-04T13:29:16.973Z,6.80
2018-01-04T13:31:47.737Z,6.90
2018-01-04T13:34:18.710Z,7.10
2018-01-04T13:36:49.469Z,7.10
2018-01-04T13:39:20.158Z,7.00
2018-01-04T13:41:52.128Z,6.90
2018-01-04T13:44:23.268Z,6.90
2018-01-04T13:46:54.132Z,6.90
2018-01-04T13:49:24.930Z,6.90
2018-01-04T13:51:56.378Z,6.90
2018-01-04T13:54:27.300Z,6.90
2018-01-04T13:56:57.991Z,6.90
2018-01-04T13:59:29.242Z,6.90
2018-01-04T14:02:00.155Z,6.80
2018-01-04T14:04:31.196Z,6.80
2018-01-04T14:07:02.210Z,6.80
2018-01-04T14:09:33.882Z,6.80
2018-01-04T14:12:04.661Z,6.80
2018-01-04T14:14:35.628Z,6.80
2018-01-04T14:17:06.768Z,6.70
2018-01-04T14:19:38.317Z,6.70
2018-01-04T14:22:09.133Z,6.70
2018-01-04T14:24:40.052Z,6.70
2018-01-04T14:27:11.008Z,6.70
2018-01-04T14:29:42.595Z,6.80
2018-01-04T14:32:13.512Z,6.80
2018-01-04T14:34:44.242Z,6.70
2018-01-04T14:37:15.749Z,6.70
2018-01-04T14:39:46.735Z,6.60
2018-01-04T14:42:17.706Z,6.60
2018-01-04T14:44:48.432Z,6.50
2018-01-04T14:47:20.393Z,6.50
2018-01-04T14:49:51.245Z,6.50
2018-01-04T14:52:22.125Z,6.50
2018-01-04T14:54:53.694Z,6.50
2018-01-04T14:57:24.865Z,6.50
2018-01-04T14:59:55.716Z,6.50
2018-01-04T15:02:26.642Z,6.50
2018-01-04T15:04:57.873Z,6.50
2018-01-04T15:07:29.468Z,6.40
2018-01-04T15:10:00.247Z,6.40
2018-01-04T15:12:30.992Z,6.40
2018-01-04T15:15:03.135Z,6.30
2018-01-04T15:17:34.040Z,6.30
2018-01-04T15:20:05.131Z,6.30
2018-01-04T15:22:36.100Z,6.40
2018-01-04T15:25:07.304Z,6.40
2018-01-04T15:27:40.343Z,6.40
2018-01-04T15:30:11.139Z,6.40
2018-01-04T15:32:43.244Z,6.50
2018-01-04T15:35:14.093Z,6.50
2018-01-04T15:37:44.967Z,6.50
2018-01-04T15:40:15.806Z,6.50
2018-01-04T15:42:47.304Z,6.50
2018-01-04T15:45:20.545Z,6.60
2018-01-04T15:47:52.370Z,6.60
2018-01-04T15:50:23.559Z,6.60
2018-01-04T15:52:54.556Z,6.60
2018-01-04T15:55:26.384Z,6.70
2018-01-04T15:57:58.033Z,6.70
2018-01-04T16:00:29.863Z,6.70
2018-01-04T16:03:00.732Z,6.70
2018-01-04T16:05:31.810Z,6.70
2018-01-04T16:08:03.825Z,6.70
2018-01-04T16:10:34.603Z,6.60
2018-01-04T16:13:05.473Z,6.60
2018-01-04T16:15:36.865Z,6.60
2018-01-04T16:18:07.768Z,6.50
2018-01-04T16:20:41.983Z,6.50
2018-01-04T16:23:23.253Z,6.40
2018-01-04T16:25:56.119Z,6.40
2018-01-04T16:28:27.126Z,6.40
2018-01-04T16:30:58.045Z,6.40
2018-01-04T16:33:30.420Z,6.40
2018-01-04T16:36:03.062Z,6.40
2018-01-04T16:38:35.064Z,6.40
2018-01-04T16:41:06.651Z,6.40
2018-01-04T16:43:38.211Z,6.40
2018-01-04T16:46:10.330Z,6.40
2018-01-04T16:48:41.398Z,6.40
2018-01-04T16:51:12.800Z,6.40
2018-01-04T16:53:44.015Z,6.50
2018-01-04T16:56:15.181Z,6.50
2018-01-04T16:58:47.191Z,6.50
2018-01-04T17:01:18.212Z,6.50
2018-01-04T17:03:50.133Z,6.60
2018-01-04T17:06:21.690Z,6.60
2018-01-04T17:08:52.894Z,6.60
2018-01-04T17:11:24.161Z,6.60
2018-01-04T17:13:55.950Z,6.50
2018-01-04T17:16:27.104Z,6.50
2018-01-04T17:18:58.605Z,6.50
2018-01-04T17:21:29.891Z,6.60
2018-01-04T17:24:00.863Z,6.50
2018-01-04T17:26:32.138Z,6.60
2018-01-04T17:29:03.235Z,6.60
2018-01-04T17:31:34.231Z,6.60
2018-01-04T17:34:05.435Z,6.60
2018-01-04T17:36:36.635Z,6.60
2018-01-04T17:39:08.321Z,6.70
2018-01-04T17:41:39.336Z,6.60
2018-01-04T17:44:10.564Z,6.70
2018-01-04T17:46:42.062Z,6.60
2018-01-04T17:49:13.861Z,6.60
2018-01-04T17:51:45.121Z,6.60
2018-01-04T17:54:17.254Z,6.70
2018-01-04T17:56:48.692Z,6.70
2018-01-04T17:59:20.433Z,6.70
2018-01-04T18:01:53.313Z,6.80
2018-01-04T18:04:26.156Z,6.80
2018-01-04T18:06:58.694Z,6.70
2018-01-04T18:09:31.329Z,6.70
2018-01-04T18:12:04.135Z,6.70
2018-01-04T18:14:36.037Z,6.70
2018-01-04T18:17:07.718Z,6.70
2018-01-04T18:19:39.984Z,6.60
2018-01-04T18:22:13.735Z,6.70
2018-01-04T18:24:46.580Z,6.60
2018-01-04T18:27:19.456Z,6.60
2018-01-04T18:29:51.166Z,6.60
2018-01-04T18:32:22.644Z,6.50
2018-01-04T18:34:55.090Z,6.50
2018-01-04T18:37:27.252Z,6.50
2018-01-04T18:40:01.037Z,6.50
2018-01-04T18:42:34.284Z,6.50
2018-01-04T18:45:06.600Z,6.40
2018-01-04T18:47:38.165Z,6.40
2018-01-04T18:50:09.633Z,6.50
2018-01-04T18:52:41.159Z,6.50
2018-01-04T18:55:12.632Z,6.40
2018-01-04T18:57:44.429Z,6.40
2018-01-04T19:00:16.009Z,6.40
2018-01-04T19:02:48.513Z,6.30
2018-01-04T19:05:19.974Z,6.30
2018-01-04T19:07:51.741Z,6.40
2018-01-04T19:10:23.649Z,6.40
2018-01-04T19:12:54.860Z,6.40
2018-01-04T19:15:25.989Z,6.40
2018-01-04T19:17:57.154Z,6.40
2018-01-04T19:20:29.216Z,6.50
2018-01-04T19:23:00.723Z,6.50
2018-01-04T19:25:32.466Z,6.50
2018-01-04T19:28:03.697Z,6.50
2018-01-04T19:30:35.114Z,6.50
2018-01-04T19:33:06.788Z,6.40
2018-01-04T19:35:39.010Z,6.50
2018-01-04T19:38:10.753Z,6.50
2018-01-04T19:40:43.294Z,6.50
2018-01-04T19:43:15.236Z,6.50
2018-01-04T19:45:47.417Z,6.40
2018-01-04T19:48:20.219Z,6.40
2018-01-04T19:50:52.579Z,6.40
2018-01-04T19:53:24.937Z,6.40
2018-01-04T19:55:57.365Z,6.30
2018-01-04T19:58:29.302Z,6.30
2018-01-04T20:01:01.413Z,6.30
2018-01-04T20:03:33.523Z,6.40
2018-01-04T20:06:05.406Z,6.40
2018-01-04T20:08:37.285Z,6.30
2018-01-04T20:11:09.130Z,6.30
2018-01-04T20:13:41.531Z,6.30
2018-01-04T20:16:13.478Z,6.30
2018-01-04T20:18:45.142Z,6.30
2018-01-04T20:21:16.888Z,6.30
2018-01-04T20:23:48.523Z,6.30
2018-01-04T20:26:20.405Z,6.30
2018-01-04T20:28:52.183Z,6.40
2018-01-04T20:31:25.661Z,6.40
2018-01-04T20:34:00.838Z,6.40
2018-01-04T20:36:32.252Z,6.40
2018-01-04T20:39:06.823Z,6.50
2018-01-04T20:41:40.056Z,6.50
2018-01-04T20:44:11.621Z,6.50
2018-01-04T20:46:43.931Z,6.50
2018-01-04T20:49:16.920Z,6.50
2018-01-04T20:51:48.452Z,6.50
2018-01-04T20:54:20.358Z,6.50
2018-01-04T20:56:53.612Z,6.50
2018-01-04T20:59:25.217Z,6.50
2018-01-04T21:01:57.042Z,6.50
2018-01-04T21:04:28.407Z,6.60
2018-01-04T21:06:59.771Z,6.60
2018-01-04T21:09:31.872Z,6.60
2018-01-04T21:12:04.902Z,6.60
2018-01-04T21:14:36.724Z,6.70
2018-01-04T21:17:08.060Z,6.70
2018-01-04T21:19:39.354Z,6.70
2018-01-04T21:22:10.719Z,6.60
2018-01-04T21:24:42.534Z,6.70
2018-01-04T21:27:14.847Z,6.70
2018-01-04T21:29:46.578Z,6.70
2018-01-04T21:32:18.339Z,6.70
2018-01-04T21:34:51.316Z,6.70
2018-01-04T21:37:23.874Z,6.70
2018-01-04T21:39:57.043Z,6.70
2018-01-04T21:42:28.657Z,6.70
2018-01-04T21:45:01.105Z,6.70
2018-01-04T21:47:33.609Z,6.60
2018-01-04T21:50:05.913Z,6.60
2018-01-04T21:52:38.560Z,6.70
2018-01-04T21:55:11.194Z,6.70
2018-01-04T21:57:42.700Z,6.80
2018-01-04T22:00:14.400Z,6.70
2018-01-04T22:02:45.992Z,6.70
2018-01-04T22:05:18.368Z,6.70
2018-01-04T22:07:52.817Z,6.80
2018-01-04T22:10:25.004Z,6.90
2018-01-04T22:12:56.533Z,6.80
2018-01-04T22:15:27.891Z,6.80
2018-01-04T22:17:59.551Z,6.70
2018-01-04T22:20:32.124Z,6.70
2018-01-04T22:23:03.485Z,6.70
2018-01-04T22:25:35.321Z,6.70
2018-01-04T22:28:07.130Z,6.80
2018-01-04T22:30:39.416Z,6.90
2018-01-04T22:33:12.247Z,6.90
2018-01-04T22:35:43.808Z,6.90
2018-01-04T22:38:15.208Z,6.90
2018-01-04T22:40:46.901Z,6.90
2018-01-04T22:43:18.796Z,6.80
2018-01-04T22:45:50.308Z,6.90
2018-01-04T22:48:22.005Z,6.90
2018-01-04T22:50:54.202Z,7.00
2018-01-04T22:53:25.548Z,7.00
2018-01-04T22:55:57.322Z,7.10
2018-01-04T22:58:28.692Z,7.10
2018-01-04T23:01:00.349Z,7.10
2018-01-04T23:03:32.887Z,7.20
2018-01-04T23:06:05.667Z,7.20
2018-01-04T23:08:37.080Z,7.30
2018-01-04T23:11:08.785Z,7.40
2018-01-04T23:13:40.173Z,7.40
2018-01-04T23:16:12.060Z,7.40
2018-01-04T23:18:43.534Z,7.50
2018-01-04T23:21:15.244Z,7.50
2018-01-04T23:23:46.690Z,7.50
2018-01-04T23:26:18.258Z,7.60
2018-01-04T23:28:49.943Z,7.60
2018-01-04T23:31:21.754Z,7.70
2018-01-04T23:33:54.143Z,7.70
2018-01-04T23:36:26.195Z,7.70
2018-01-04T23:38:57.628Z,7.80
2018-01-04T23:41:29.690Z,7.80
2018-01-04T23:44:01.190Z,7.80
2018-01-04T23:46:33.290Z,7.90
2018-01-04T23:49:04.610Z,7.90
2018-01-04T23:51:36.152Z,7.90
2018-01-04T23:54:08.271Z,7.90
2018-01-04T23:56:39.458Z,7.90
2018-01-04T23:59:12.445Z,7.90
